This is the latest recevied weather packets stored in our database for station/object SP6PWT-13. If no packets are shown the sender has not sent any weather packets the latest 1 day(s).
| Time | Temp. | Humidity | Pressure | Rain* | Wind** | Luminosity | Snow |
|---|---|---|---|---|---|---|---|
| 1836274695 | 15° C | 89% | 1005.4 hPa | 0 mm | 3.58 m/s, 126° | 0 W/m² | - |
| 1836274558 | 14.44° C | 89% | 1005.1 hPa | 0 mm | 3.58 m/s, 111° | 0 W/m² | - |
| 1836274395 | 15° C | 90% | 1005.3 hPa | 0 mm | 3.13 m/s, 131° | 0 W/m² | - |
| 1836274256 | 15° C | 90% | 1005.3 hPa | 0 mm | 3.58 m/s, 122° | 0 W/m² | - |
| 1836274084 | 15° C | 89% | 1005.5 hPa | 0 mm | 3.13 m/s, 139° | 0 W/m² | - |
| 1778019466 | 15.56° C | 68% | 989.1 hPa | 0 mm | 0.89 m/s, 38° | 0 W/m² | - |
| 1778019165 | 15.56° C | 68% | 989.1 hPa | 0 mm | 0.89 m/s, 24° | 0 W/m² | - |
| 1778018865 | 15.56° C | 68% | 988.8 hPa | 0 mm | 1.34 m/s, 9° | 0 W/m² | - |
| 1778018564 | 16.11° C | 68% | 989.3 hPa | 0 mm | 2.24 m/s, 11° | 0 W/m² | - |
| 1778018264 | 16.11° C | 68% | 989.1 hPa | 0 mm | 2.24 m/s, 2° | 0 W/m² | - |
| 1778017963 | 16.11° C | 68% | 989.3 hPa | 0 mm | 2.24 m/s, 40° | 0 W/m² | - |
| 1778017662 | 16.11° C | 68% | 989.2 hPa | 0 mm | 2.24 m/s, 25° | 0 W/m² | - |
| 1778017362 | 16.67° C | 68% | 989.4 hPa | 0 mm | 1.34 m/s, 46° | 0 W/m² | - |
| 1778017061 | 16.67° C | 68% | 989.5 hPa | 0 mm | 2.68 m/s, 10° | 0 W/m² | - |
| 1778016761 | 16.67° C | 68% | 989.3 hPa | 0 mm | 1.79 m/s, 22° | 0 W/m² | - |
| 1778016460 | 16.67° C | 68% | 989.3 hPa | 0 mm | 0.89 m/s, 69° | 0 W/m² | - |
| 1778016160 | 16.67° C | 68% | 989.4 hPa | 0 mm | 1.34 m/s, 94° | 0 W/m² | - |
| 1778015849 | 16.67° C | 68% | 989.2 hPa | 0 mm | 2.68 m/s, 50° | 0 W/m² | - |
| 1778015549 | 16.67° C | 68% | 989 hPa | 0 mm | 1.34 m/s, 49° | 0 W/m² | - |
| 1778015248 | 17.22° C | 68% | 989.2 hPa | 0 mm | 3.13 m/s, 1° | 0 W/m² | - |
| 1778014947 | 17.22° C | 68% | 989.2 hPa | 0 mm | 2.68 m/s, 11° | 0 W/m² | - |
| 1778014646 | 17.22° C | 68% | 989.5 hPa | 0 mm | 5.81 m/s, 22° | 0 W/m² | - |
| 1778014336 | 17.22° C | 68% | 989.2 hPa | 0 mm | 2.24 m/s, 46° | 0 W/m² | - |
| 1778014035 | 17.78° C | 68% | 989.1 hPa | 0 mm | 5.36 m/s, 48° | 0 W/m² | - |
| 1778013735 | 17.78° C | 69% | 989.2 hPa | 0 mm | 2.68 m/s, 27° | 0 W/m² | - |
* Rain latest hour (hover to see other rain measurements)
** Current wind speed in m/s (hover to see current wind gust speed)